sensor_id;sensor_type;location;lat;lon;timestamp;pressure;altitude;pressure_sealevel;temperature;humidity
10720;BME280;5411;58.386;15.560;2023-01-09T00:02:04;98884.53;;;5.37;100.00
10720;BME280;5411;58.386;15.560;2023-01-09T00:04:33;98892.28;;;5.39;100.00
10720;BME280;5411;58.386;15.560;2023-01-09T00:07:07;98877.59;;;5.30;100.00
10720;BME280;5411;58.386;15.560;2023-01-09T00:09:37;98894.50;;;5.35;100.00
10720;BME280;5411;58.386;15.560;2023-01-09T00:12:10;98883.09;;;5.35;100.00
10720;BME280;5411;58.386;15.560;2023-01-09T00:14:58;98887.56;;;5.34;100.00
10720;BME280;5411;58.386;15.560;2023-01-09T00:17:28;98874.53;;;5.33;100.00
10720;BME280;5411;58.386;15.560;2023-01-09T00:20:03;98875.75;;;5.37;100.00
10720;BME280;5411;58.386;15.560;2023-01-09T00:22:32;98885.94;;;5.40;100.00
10720;BME280;5411;58.386;15.560;2023-01-09T00:25:07;98884.09;;;5.34;100.00
10720;BME280;5411;58.386;15.560;2023-01-09T00:27:37;98884.72;;;5.36;100.00
10720;BME280;5411;58.386;15.560;2023-01-09T00:30:08;98884.72;;;5.36;100.00
10720;BME280;5411;58.386;15.560;2023-01-09T00:32:39;98882.69;;;5.25;100.00
10720;BME280;5411;58.386;15.560;2023-01-09T00:35:12;98878.63;;;5.22;100.00
10720;BME280;5411;58.386;15.560;2023-01-09T00:38:22;98882.91;;;5.23;100.00
10720;BME280;5411;58.386;15.560;2023-01-09T00:40:42;98876.16;;;5.21;100.00
10720;BME280;5411;58.386;15.560;2023-01-09T00:43:13;98870.88;;;5.14;100.00
10720;BME280;5411;58.386;15.560;2023-01-09T00:45:43;98870.28;;;5.12;100.00
10720;BME280;5411;58.386;15.560;2023-01-09T00:48:18;98868.22;;;5.08;100.00
10720;BME280;5411;58.386;15.560;2023-01-09T00:50:54;98879.44;;;5.10;100.00
10720;BME280;5411;58.386;15.560;2023-01-09T00:53:29;98882.09;;;5.10;100.00
10720;BME280;5411;58.386;15.560;2023-01-09T00:56:06;98880.47;;;5.09;100.00
10720;BME280;5411;58.386;15.560;2023-01-09T00:58:36;98873.13;;;5.04;100.00
10720;BME280;5411;58.386;15.560;2023-01-09T01:01:07;98876.81;;;5.03;100.00
10720;BME280;5411;58.386;15.560;2023-01-09T01:03:40;98877.81;;;5.02;100.00
10720;BME280;5411;58.386;15.560;2023-01-09T01:06:10;98863.53;;;4.96;100.00
10720;BME280;5411;58.386;15.560;2023-01-09T01:08:57;98877.19;;;5.00;100.00
10720;BME280;5411;58.386;15.560;2023-01-09T01:11:28;98870.88;;;4.94;100.00
10720;BME280;5411;58.386;15.560;2023-01-09T01:13:57;98865.56;;;4.94;100.00
10720;BME280;5411;58.386;15.560;2023-01-09T01:16:31;98872.13;;;4.92;100.00
10720;BME280;5411;58.386;15.560;2023-01-09T01:19:04;98867.41;;;4.94;100.00
10720;BME280;5411;58.386;15.560;2023-01-09T01:21:33;98860.28;;;4.94;100.00
10720;BME280;5411;58.386;15.560;2023-01-09T01:24:02;98861.31;;;5.00;100.00
10720;BME280;5411;58.386;15.560;2023-01-09T01:26:36;98867.41;;;5.07;100.00
10720;BME280;5411;58.386;15.560;2023-01-09T01:29:04;98863.13;;;5.06;100.00
10720;BME280;5411;58.386;15.560;2023-01-09T01:31:36;98856.41;;;5.10;100.00
10720;BME280;5411;58.386;15.560;2023-01-09T01:34:04;98847.00;;;5.08;100.00
10720;BME280;5411;58.386;15.560;2023-01-09T01:36:34;98854.75;;;5.09;100.00
10720;BME280;5411;58.386;15.560;2023-01-09T01:39:03;98862.72;;;5.16;100.00
10720;BME280;5411;58.386;15.560;2023-01-09T01:41:32;98859.69;;;5.19;100.00
10720;BME280;5411;58.386;15.560;2023-01-09T01:44:05;98853.31;;;5.20;100.00
10720;BME280;5411;58.386;15.560;2023-01-09T01:46:36;98840.88;;;5.20;100.00
10720;BME280;5411;58.386;15.560;2023-01-09T01:49:07;98836.81;;;5.24;100.00
10720;BME280;5411;58.386;15.560;2023-01-09T01:51:40;98846.81;;;5.29;100.00
10720;BME280;5411;58.386;15.560;2023-01-09T01:54:13;98848.44;;;5.30;100.00
10720;BME280;5411;58.386;15.560;2023-01-09T01:56:47;98846.00;;;5.28;100.00
10720;BME280;5411;58.386;15.560;2023-01-09T01:59:21;98840.69;;;5.28;100.00
10720;BME280;5411;58.386;15.560;2023-01-09T02:01:57;98845.78;;;5.30;100.00
10720;BME280;5411;58.386;15.560;2023-01-09T02:04:28;98841.91;;;5.32;100.00
10720;BME280;5411;58.386;15.560;2023-01-09T02:07:01;98850.91;;;5.31;100.00
10720;BME280;5411;58.386;15.560;2023-01-09T02:09:34;98848.44;;;5.30;100.00
10720;BME280;5411;58.386;15.560;2023-01-09T02:12:14;98838.66;;;5.30;100.00
10720;BME280;5411;58.386;15.560;2023-01-09T02:14:47;98846.97;;;5.34;100.00
10720;BME280;5411;58.386;15.560;2023-01-09T02:20:39;98854.75;;;5.29;100.00
10720;BME280;5411;58.386;15.560;2023-01-09T02:32:42;98841.91;;;5.26;100.00
10720;BME280;5411;58.386;15.560;2023-01-09T02:35:26;98852.31;;;5.27;100.00
10720;BME280;5411;58.386;15.560;2023-01-09T02:38:11;98854.34;;;5.32;100.00
10720;BME280;5411;58.386;15.560;2023-01-09T02:40:50;98848.00;;;5.33;100.00
10720;BME280;5411;58.386;15.560;2023-01-09T02:43:21;98853.31;;;5.33;100.00
10720;BME280;5411;58.386;15.560;2023-01-09T02:45:52;98831.91;;;5.28;100.00
10720;BME280;5411;58.386;15.560;2023-01-09T02:48:28;98834.97;;;5.31;100.00
10720;BME280;5411;58.386;15.560;2023-01-09T02:51:06;98829.69;;;5.31;100.00
10720;BME280;5411;58.386;15.560;2023-01-09T02:53:58;98838.41;;;5.38;100.00
10720;BME280;5411;58.386;15.560;2023-01-09T02:56:49;98834.97;;;5.38;100.00
10720;BME280;5411;58.386;15.560;2023-01-09T02:59:27;98814.97;;;5.35;100.00
10720;BME280;5411;58.386;15.560;2023-01-09T03:02:12;98829.66;;;5.38;100.00
10720;BME280;5411;58.386;15.560;2023-01-09T03:04:57;98819.25;;;5.36;100.00
10720;BME280;5411;58.386;15.560;2023-01-09T03:07:33;98825.78;;;5.34;100.00
10720;BME280;5411;58.386;15.560;2023-01-09T03:10:09;98822.75;;;5.30;100.00
10720;BME280;5411;58.386;15.560;2023-01-09T03:12:52;98826.00;;;5.32;100.00
10720;BME280;5411;58.386;15.560;2023-01-09T03:15:28;98831.31;;;5.32;100.00
10720;BME280;5411;58.386;15.560;2023-01-09T03:18:04;98846.78;;;5.35;100.00
10720;BME280;5411;58.386;15.560;2023-01-09T03:20:37;98842.31;;;5.29;100.00
10720;BME280;5411;58.386;15.560;2023-01-09T03:23:07;98851.28;;;5.28;100.00
10720;BME280;5411;58.386;15.560;2023-01-09T03:25:37;98856.81;;;5.27;100.00
10720;BME280;5411;58.386;15.560;2023-01-09T03:28:08;98843.97;;;5.17;100.00
10720;BME280;5411;58.386;15.560;2023-01-09T03:30:40;98856.59;;;5.22;100.00
10720;BME280;5411;58.386;15.560;2023-01-09T03:33:10;98854.13;;;5.20;100.00
10720;BME280;5411;58.386;15.560;2023-01-09T03:35:40;98859.66;;;5.25;100.00
10720;BME280;5411;58.386;15.560;2023-01-09T03:38:12;98863.34;;;5.31;100.00
10720;BME280;5411;58.386;15.560;2023-01-09T03:40:41;98856.59;;;5.28;100.00
10720;BME280;5411;58.386;15.560;2023-01-09T03:43:12;98859.25;;;5.28;100.00
10720;BME280;5411;58.386;15.560;2023-01-09T03:45:41;98857.81;;;5.32;100.00
10720;BME280;5411;58.386;15.560;2023-01-09T03:48:13;98854.13;;;5.33;100.00
10720;BME280;5411;58.386;15.560;2023-01-09T03:50:44;98860.66;;;5.37;100.00
10720;BME280;5411;58.386;15.560;2023-01-09T03:53:13;98852.91;;;5.36;100.00
10720;BME280;5411;58.386;15.560;2023-01-09T03:55:45;98856.16;;;5.38;100.00
10720;BME280;5411;58.386;15.560;2023-01-09T03:58:15;98868.19;;;5.41;100.00
10720;BME280;5411;58.386;15.560;2023-01-09T04:00:45;98867.38;;;5.40;100.00
10720;BME280;5411;58.386;15.560;2023-01-09T04:03:18;98857.19;;;5.37;100.00
10720;BME280;5411;58.386;15.560;2023-01-09T04:05:50;98859.84;;;5.37;100.00
10720;BME280;5411;58.386;15.560;2023-01-09T04:08:19;98851.72;;;5.32;100.00
10720;BME280;5411;58.386;15.560;2023-01-09T04:10:49;98851.09;;;5.30;100.00
10720;BME280;5411;58.386;15.560;2023-01-09T04:13:20;98851.72;;;5.32;100.00
10720;BME280;5411;58.386;15.560;2023-01-09T04:15:49;98858.03;;;5.31;100.00
10720;BME280;5411;58.386;15.560;2023-01-09T04:18:19;98864.34;;;5.30;100.00
10720;BME280;5411;58.386;15.560;2023-01-09T04:20:51;98872.72;;;5.27;100.00
10720;BME280;5411;58.386;15.560;2023-01-09T04:23:21;98860.69;;;5.18;100.00
10720;BME280;5411;58.386;15.560;2023-01-09T04:25:50;98878.22;;;5.19;100.00
10720;BME280;5411;58.386;15.560;2023-01-09T04:28:19;98886.78;;;5.14;100.00
10720;BME280;5411;58.386;15.560;2023-01-09T04:30:48;98888.03;;;5.05;100.00
10720;BME280;5411;58.386;15.560;2023-01-09T04:33:18;98896.78;;;4.99;100.00
10720;BME280;5411;58.386;15.560;2023-01-09T04:35:48;98899.00;;;4.89;100.00
10720;BME280;5411;58.386;15.560;2023-01-09T04:38:19;98899.41;;;4.86;100.00
10720;BME280;5411;58.386;15.560;2023-01-09T04:40:49;98897.97;;;4.77;100.00
10720;BME280;5411;58.386;15.560;2023-01-09T04:43:20;98907.97;;;4.75;100.00
10720;BME280;5411;58.386;15.560;2023-01-09T04:45:52;98897.53;;;4.66;100.00
10720;BME280;5411;58.386;15.560;2023-01-09T04:48:25;98902.25;;;4.64;100.00
10720;BME280;5411;58.386;15.560;2023-01-09T04:50:54;98888.56;;;4.61;100.00
10720;BME280;5411;58.386;15.560;2023-01-09T04:53:25;98888.53;;;4.54;100.00
10720;BME280;5411;58.386;15.560;2023-01-09T04:55:53;98880.59;;;4.54;100.00
10720;BME280;5411;58.386;15.560;2023-01-09T04:58:24;98879.78;;;4.54;100.00
10720;BME280;5411;58.386;15.560;2023-01-09T05:00:53;98881.84;;;4.58;100.00
10720;BME280;5411;58.386;15.560;2023-01-09T05:03:24;98873.28;;;4.56;100.00
10720;BME280;5411;58.386;15.560;2023-01-09T05:06:15;98868.59;;;4.58;100.00
10720;BME280;5411;58.386;15.560;2023-01-09T05:19:35;98877.38;;;4.59;100.00
10720;BME280;5411;58.386;15.560;2023-01-09T05:22:11;98887.97;;;4.59;100.00
10720;BME280;5411;58.386;15.560;2023-01-09T05:25:23;98894.03;;;4.53;100.00
10720;BME280;5411;58.386;15.560;2023-01-09T05:28:04;98887.72;;;4.54;100.00
10720;BME280;5411;58.386;15.560;2023-01-09T05:30:48;98889.38;;;4.55;100.00
10720;BME280;5411;58.386;15.560;2023-01-09T05:33:20;98889.16;;;4.56;100.00
10720;BME280;5411;58.386;15.560;2023-01-09T05:39:41;98886.53;;;4.56;100.00
10720;BME280;5411;58.386;15.560;2023-01-09T05:42:25;98889.59;;;4.60;100.00
10720;BME280;5411;58.386;15.560;2023-01-09T05:45:03;98878.56;;;4.56;100.00
10720;BME280;5411;58.386;15.560;2023-01-09T05:47:50;98884.28;;;4.60;100.00
10720;BME280;5411;58.386;15.560;2023-01-09T05:50:46;98877.38;;;4.52;100.00
10720;BME280;5411;58.386;15.560;2023-01-09T05:53:32;98880.22;;;4.51;100.00
10720;BME280;5411;58.386;15.560;2023-01-09T06:14:42;98904.22;;;4.43;100.00
10720;BME280;5411;58.386;15.560;2023-01-09T06:17:17;98906.84;;;4.43;100.00
10720;BME280;5411;58.386;15.560;2023-01-09T06:19:46;98910.94;;;4.45;100.00
10720;BME280;5411;58.386;15.560;2023-01-09T06:22:18;98903.59;;;4.41;100.00
10720;BME280;5411;58.386;15.560;2023-01-09T06:25:04;98903.00;;;4.39;100.00
10720;BME280;5411;58.386;15.560;2023-01-09T06:30:23;98897.22;;;4.28;100.00
10720;BME280;5411;58.386;15.560;2023-01-09T06:32:53;98897.84;;;4.30;100.00
10720;BME280;5411;58.386;15.560;2023-01-09T06:35:33;98883.00;;;4.29;100.00
10720;BME280;5411;58.386;15.560;2023-01-09T06:38:05;98888.28;;;4.29;100.00
10720;BME280;5411;58.386;15.560;2023-01-09T06:40:47;98919.28;;;4.36;100.00
10720;BME280;5411;58.386;15.560;2023-01-09T06:43:19;98918.44;;;4.35;100.00
10720;BME280;5411;58.386;15.560;2023-01-09T06:45:53;98908.25;;;4.32;100.00
10720;BME280;5411;58.386;15.560;2023-01-09T06:48:36;98910.50;;;4.35;100.00
10720;BME280;5411;58.386;15.560;2023-01-09T06:51:18;98915.59;;;4.37;100.00
10720;BME280;5411;58.386;15.560;2023-01-09T06:53:56;98911.31;;;4.36;100.00
10720;BME280;5411;58.386;15.560;2023-01-09T06:56:39;98915.59;;;4.37;100.00
10720;BME280;5411;58.386;15.560;2023-01-09T06:59:37;98913.34;;;4.34;100.00
10720;BME280;5411;58.386;15.560;2023-01-09T07:02:15;98908.06;;;4.34;100.00
10720;BME280;5411;58.386;15.560;2023-01-09T07:04:46;98898.88;;;4.29;100.00
10720;BME280;5411;58.386;15.560;2023-01-09T07:07:15;98896.22;;;4.29;100.00
10720;BME280;5411;58.386;15.560;2023-01-09T07:09:47;98897.22;;;4.28;100.00
10720;BME280;5411;58.386;15.560;2023-01-09T07:12:17;98891.94;;;4.28;100.00
10720;BME280;5411;58.386;15.560;2023-01-09T07:14:50;98871.97;;;4.19;100.00
10720;BME280;5411;58.386;15.560;2023-01-09T07:17:20;98861.97;;;4.08;100.00
10720;BME280;5411;58.386;15.560;2023-01-09T07:19:49;98863.34;;;4.04;100.00
10720;BME280;5411;58.386;15.560;2023-01-09T07:22:18;98865.38;;;4.02;100.00
10720;BME280;5411;58.386;15.560;2023-01-09T07:24:49;98865.00;;;4.05;100.00
10720;BME280;5411;58.386;15.560;2023-01-09T07:27:20;98876.41;;;4.06;100.00
10720;BME280;5411;58.386;15.560;2023-01-09T07:29:49;98884.91;;;4.01;100.00
10720;BME280;5411;58.386;15.560;2023-01-09T07:32:21;98894.53;;;4.09;100.00
10720;BME280;5411;58.386;15.560;2023-01-09T07:34:50;98895.94;;;4.05;100.00
10720;BME280;5411;58.386;15.560;2023-01-09T07:37:18;98896.56;;;4.07;100.00
10720;BME280;5411;58.386;15.560;2023-01-09T07:39:47;98904.31;;;4.08;100.00
10720;BME280;5411;58.386;15.560;2023-01-09T07:42:16;98910.63;;;4.14;100.00
10720;BME280;5411;58.386;15.560;2023-01-09T07:44:45;98905.56;;;4.19;100.00
10720;BME280;5411;58.386;15.560;2023-01-09T07:47:16;98900.66;;;4.16;100.00
10720;BME280;5411;58.386;15.560;2023-01-09T07:49:48;98907.00;;;4.21;100.00
10720;BME280;5411;58.386;15.560;2023-01-09T07:52:19;98908.00;;;4.20;100.00
10720;BME280;5411;58.386;15.560;2023-01-09T07:54:50;98907.63;;;4.23;100.00
10720;BME280;5411;58.386;15.560;2023-01-09T07:57:18;98892.38;;;4.25;100.00
10720;BME280;5411;58.386;15.560;2023-01-09T07:59:47;98888.66;;;4.20;100.00
10720;BME280;5411;58.386;15.560;2023-01-09T08:02:16;98903.16;;;4.24;100.00
10720;BME280;5411;58.386;15.560;2023-01-09T08:04:46;98904.16;;;4.29;100.00
10720;BME280;5411;58.386;15.560;2023-01-09T08:07:15;98909.47;;;4.29;100.00
10720;BME280;5411;58.386;15.560;2023-01-09T08:09:44;98910.09;;;4.32;100.00
10720;BME280;5411;58.386;15.560;2023-01-09T08:12:12;98913.75;;;4.30;100.00
10720;BME280;5411;58.386;15.560;2023-01-09T08:14:41;98912.91;;;4.30;100.00
10720;BME280;5411;58.386;15.560;2023-01-09T08:17:11;98904.56;;;4.26;100.00
10720;BME280;5411;58.386;15.560;2023-01-09T08:19:39;98898.88;;;4.29;100.00
10720;BME280;5411;58.386;15.560;2023-01-09T08:22:12;98902.72;;;4.27;100.00
10720;BME280;5411;58.386;15.560;2023-01-09T08:24:41;98896.22;;;4.29;100.00
10720;BME280;5411;58.386;15.560;2023-01-09T08:27:09;98899.50;;;4.32;100.00
10720;BME280;5411;58.386;15.560;2023-01-09T08:29:38;98893.56;;;4.29;100.00
10720;BME280;5411;58.386;15.560;2023-01-09T08:32:06;98897.22;;;4.28;100.00
10720;BME280;5411;58.386;15.560;2023-01-09T08:34:35;98890.31;;;4.27;100.00
10720;BME280;5411;58.386;15.560;2023-01-09T08:37:08;98890.34;;;4.34;100.00
10720;BME280;5411;58.386;15.560;2023-01-09T08:39:38;98893.41;;;4.38;100.00
10720;BME280;5411;58.386;15.560;2023-01-09T08:42:07;98900.16;;;4.47;100.00
10720;BME280;5411;58.386;15.560;2023-01-09T08:44:53;98898.31;;;4.54;100.00
10720;BME280;5411;58.386;15.560;2023-01-09T08:47:38;98891.81;;;4.56;100.00
10720;BME280;5411;58.386;15.560;2023-01-09T08:50:08;98893.66;;;4.69;100.00
10720;BME280;5411;58.386;15.560;2023-01-09T08:52:39;98890.44;;;4.74;100.00
10720;BME280;5411;58.386;15.560;2023-01-09T08:55:09;98886.97;;;4.73;100.00
10720;BME280;5411;58.386;15.560;2023-01-09T08:57:46;98886.75;;;4.75;100.00
10720;BME280;5411;58.386;15.560;2023-01-09T09:00:22;98893.69;;;4.82;100.00
10720;BME280;5411;58.386;15.560;2023-01-09T09:02:52;98886.16;;;4.79;100.00
10720;BME280;5411;58.386;15.560;2023-01-09T09:05:25;98893.28;;;4.85;100.00
10720;BME280;5411;58.386;15.560;2023-01-09T09:08:03;98892.28;;;4.86;100.00
10720;BME280;5411;58.386;15.560;2023-01-09T09:10:36;98894.13;;;4.86;100.00
10720;BME280;5411;58.386;15.560;2023-01-09T09:13:04;98885.13;;;4.80;100.00
10720;BME280;5411;58.386;15.560;2023-01-09T09:15:35;98879.00;;;4.80;100.00
10720;BME280;5411;58.386;15.560;2023-01-09T09:20:49;98893.50;;;4.90;100.00
10720;BME280;5411;58.386;15.560;2023-01-09T09:23:17;98887.78;;;4.93;100.00
10720;BME280;5411;58.386;15.560;2023-01-09T09:25:50;98872.09;;;4.85;100.00
10720;BME280;5411;58.386;15.560;2023-01-09T09:28:19;98881.09;;;4.91;100.00
10720;BME280;5411;58.386;15.560;2023-01-09T09:30:48;98880.06;;;4.92;100.00
10720;BME280;5411;58.386;15.560;2023-01-09T09:33:16;98871.69;;;4.88;100.00
10720;BME280;5411;58.386;15.560;2023-01-09T09:35:45;98874.34;;;4.88;100.00
10720;BME280;5411;58.386;15.560;2023-01-09T09:38:14;98889.41;;;4.94;100.00
10720;BME280;5411;58.386;15.560;2023-01-09T09:41:04;98881.69;;;4.99;100.00
10720;BME280;5411;58.386;15.560;2023-01-09T09:44:11;98877.00;;;5.01;100.00
10720;BME280;5411;58.386;15.560;2023-01-09T09:47:11;98874.16;;;5.03;100.00
10720;BME280;5411;58.386;15.560;2023-01-09T09:49:51;98880.88;;;5.06;100.00
10720;BME280;5411;58.386;15.560;2023-01-09T09:52:29;98890.84;;;5.10;100.00
10720;BME280;5411;58.386;15.560;2023-01-09T09:55:04;98881.88;;;5.11;100.00
10720;BME280;5411;58.386;15.560;2023-01-09T09:57:41;98878.63;;;5.16;100.00
10720;BME280;5411;58.386;15.560;2023-01-09T10:00:15;98885.38;;;5.18;100.00
10720;BME280;5411;58.386;15.560;2023-01-09T10:02:47;98873.50;;;5.21;100.00
10720;BME280;5411;58.386;15.560;2023-01-09T10:05:23;98882.28;;;5.28;100.00
10720;BME280;5411;58.386;15.560;2023-01-09T10:07:56;98886.75;;;5.34;100.00
10720;BME280;5411;58.386;15.560;2023-01-09T10:10:45;98873.50;;;5.34;100.00
10720;BME280;5411;58.386;15.560;2023-01-09T10:13:21;98876.56;;;5.37;100.00
10720;BME280;5411;58.386;15.560;2023-01-09T10:16:24;98882.47;;;5.40;100.00
10720;BME280;5411;58.386;15.560;2023-01-09T10:19:05;98876.38;;;5.39;100.00
10720;BME280;5411;58.386;15.560;2023-01-09T10:21:42;98873.72;;;5.39;100.00
10720;BME280;5411;58.386;15.560;2023-01-09T10:24:23;98879.44;;;5.43;100.00
10720;BME280;5411;58.386;15.560;2023-01-09T10:26:55;98876.97;;;5.41;100.00
10720;BME280;5411;58.386;15.560;2023-01-09T10:29:50;98883.91;;;5.42;100.00
10720;BME280;5411;58.386;15.560;2023-01-09T10:32:29;98884.53;;;5.44;100.00
10720;BME280;5411;58.386;15.560;2023-01-09T10:38:33;98885.53;;;5.50;100.00
10720;BME280;5411;58.386;15.560;2023-01-09T10:41:09;98884.72;;;5.56;100.00
10720;BME280;5411;58.386;15.560;2023-01-09T10:43:44;98878.59;;;5.55;100.00
10720;BME280;5411;58.386;15.560;2023-01-09T10:46:20;98874.31;;;5.54;100.00
10720;BME280;5411;58.386;15.560;2023-01-09T10:48:54;98879.19;;;5.57;100.00
10720;BME280;5411;58.386;15.560;2023-01-09T10:51:30;98871.25;;;5.57;100.00
10720;BME280;5411;58.386;15.560;2023-01-09T10:54:03;98875.53;;;5.58;100.00
10720;BME280;5411;58.386;15.560;2023-01-09T10:56:36;98869.16;;;5.59;100.00
10720;BME280;5411;58.386;15.560;2023-01-09T10:59:11;98869.16;;;5.66;100.00
10720;BME280;5411;58.386;15.560;2023-01-09T11:01:41;98866.72;;;5.71;100.00
10720;BME280;5411;58.386;15.560;2023-01-09T11:04:22;98863.22;;;5.77;100.00
10720;BME280;5411;58.386;15.560;2023-01-09T11:06:57;98849.13;;;5.77;100.00
10720;BME280;5411;58.386;15.560;2023-01-09T11:09:58;98858.31;;;5.81;100.00
10720;BME280;5411;58.386;15.560;2023-01-09T11:12:30;98844.63;;;5.77;100.00
10720;BME280;5411;58.386;15.560;2023-01-09T11:15:22;98845.28;;;5.72;100.00
10720;BME280;5411;58.386;15.560;2023-01-09T11:18:17;98837.50;;;5.78;100.00
10720;BME280;5411;58.386;15.560;2023-01-09T11:20:46;98851.78;;;5.77;100.00
10720;BME280;5411;58.386;15.560;2023-01-09T11:23:26;98838.31;;;5.78;100.00
10720;BME280;5411;58.386;15.560;2023-01-09T11:25:58;98850.34;;;5.81;100.00
10720;BME280;5411;58.386;15.560;2023-01-09T11:28:28;98845.66;;;5.83;100.00
10720;BME280;5411;58.386;15.560;2023-01-09T11:30:59;98855.84;;;5.86;100.00
10720;BME280;5411;58.386;15.560;2023-01-09T11:33:35;98855.84;;;5.86;100.00
10720;BME280;5411;58.386;15.560;2023-01-09T11:36:11;98853.00;;;5.81;100.00
10720;BME280;5411;58.386;15.560;2023-01-09T11:38:47;98853.00;;;5.81;100.00
10720;BME280;5411;58.386;15.560;2023-01-09T11:41:19;98849.94;;;5.77;100.00
10720;BME280;5411;58.386;15.560;2023-01-09T11:43:50;98860.56;;;5.84;100.00
10720;BME280;5411;58.386;15.560;2023-01-09T11:46:34;98860.56;;;5.84;100.00
10720;BME280;5411;58.386;15.560;2023-01-09T11:49:20;98858.09;;;5.82;100.00
10720;BME280;5411;58.386;15.560;2023-01-09T11:52:14;98863.41;;;5.82;100.00
10720;BME280;5411;58.386;15.560;2023-01-09T11:54:46;98858.31;;;5.81;100.00
10720;BME280;5411;58.386;15.560;2023-01-09T11:57:16;98859.75;;;5.83;100.00
10720;BME280;5411;58.386;15.560;2023-01-09T11:59:45;98851.16;;;5.81;100.00
10720;BME280;5411;58.386;15.560;2023-01-09T12:02:28;98851.78;;;5.83;100.00
10720;BME280;5411;58.386;15.560;2023-01-09T12:05:12;98843.00;;;5.83;100.00
10720;BME280;5411;58.386;15.560;2023-01-09T12:08:18;98838.88;;;5.87;100.00
10720;BME280;5411;58.386;15.560;2023-01-09T12:11:06;98837.50;;;5.84;100.00
10720;BME280;5411;58.386;15.560;2023-01-09T12:13:54;98829.72;;;5.83;100.00
10720;BME280;5411;58.386;15.560;2023-01-09T12:16:32;98837.50;;;5.84;100.00
10720;BME280;5411;58.386;15.560;2023-01-09T12:19:13;98834.44;;;5.81;100.00
10720;BME280;5411;58.386;15.560;2023-01-09T12:21:54;98835.25;;;5.81;100.00
10720;BME280;5411;58.386;15.560;2023-01-09T12:24:36;98821.38;;;5.79;100.00
10720;BME280;5411;58.386;15.560;2023-01-09T12:27:16;98825.03;;;5.78;100.00
10720;BME280;5411;58.386;15.560;2023-01-09T12:30:03;98822.41;;;5.78;100.00
10720;BME280;5411;58.386;15.560;2023-01-09T12:32:48;98830.75;;;5.82;100.00
10720;BME280;5411;58.386;15.560;2023-01-09T12:35:27;98822.19;;;5.80;100.00
10720;BME280;5411;58.386;15.560;2023-01-09T12:38:16;98837.69;;;5.83;100.00
10720;BME280;5411;58.386;15.560;2023-01-09T12:43:53;98837.50;;;5.78;100.00
10720;BME280;5411;58.386;15.560;2023-01-09T12:46:40;98832.19;;;5.78;100.00
10720;BME280;5411;58.386;15.560;2023-01-09T12:49:22;98834.84;;;5.78;100.00
10720;BME280;5411;58.386;15.560;2023-01-09T12:51:58;98836.69;;;5.77;100.00
10720;BME280;5411;58.386;15.560;2023-01-09T12:54:40;98843.22;;;5.81;100.00
10720;BME280;5411;58.386;15.560;2023-01-09T12:57:16;98827.50;;;5.80;100.00
10720;BME280;5411;58.386;15.560;2023-01-09T12:59:49;98828.72;;;5.84;100.00
10720;BME280;5411;58.386;15.560;2023-01-09T13:02:24;98827.69;;;5.85;100.00
10720;BME280;5411;58.386;15.560;2023-01-09T13:05:02;98829.09;;;5.87;100.00
10720;BME280;5411;58.386;15.560;2023-01-09T13:07:39;98827.69;;;5.85;100.00
10720;BME280;5411;58.386;15.560;2023-01-09T13:10:18;98823.81;;;5.81;100.00
10720;BME280;5411;58.386;15.560;2023-01-09T13:12:51;98824.22;;;5.84;100.00
10720;BME280;5411;58.386;15.560;2023-01-09T13:15:27;98817.69;;;5.80;100.00
10720;BME280;5411;58.386;15.560;2023-01-09T13:18:02;98814.63;;;5.83;100.00
10720;BME280;5411;58.386;15.560;2023-01-09T13:20:37;98827.50;;;5.80;100.00
10720;BME280;5411;58.386;15.560;2023-01-09T13:23:07;98816.28;;;5.78;100.00
10720;BME280;5411;58.386;15.560;2023-01-09T13:25:42;98818.50;;;5.81;100.00
10720;BME280;5411;58.386;15.560;2023-01-09T13:28:15;98813.63;;;5.78;100.00
10720;BME280;5411;58.386;15.560;2023-01-09T13:31:11;98826.66;;;5.86;100.00
10720;BME280;5411;58.386;15.560;2023-01-09T13:33:50;98831.16;;;5.85;100.00
10720;BME280;5411;58.386;15.560;2023-01-09T13:36:24;98828.91;;;5.89;100.00
10720;BME280;5411;58.386;15.560;2023-01-09T13:38:55;98820.94;;;5.89;100.00
10720;BME280;5411;58.386;15.560;2023-01-09T13:41:29;98830.75;;;5.88;100.00
10720;BME280;5411;58.386;15.560;2023-01-09T13:44:25;98825.84;;;5.85;100.00
10720;BME280;5411;58.386;15.560;2023-01-09T13:47:03;98828.91;;;5.82;100.00
10720;BME280;5411;58.386;15.560;2023-01-09T13:49:58;98829.72;;;5.83;100.00
10720;BME280;5411;58.386;15.560;2023-01-09T13:52:32;98834.03;;;5.84;100.00
10720;BME280;5411;58.386;15.560;2023-01-09T13:55:30;98832.38;;;5.83;100.00
10720;BME280;5411;58.386;15.560;2023-01-09T13:58:25;98830.56;;;5.83;100.00
10720;BME280;5411;58.386;15.560;2023-01-09T14:01:04;98839.94;;;5.86;100.00
10720;BME280;5411;58.386;15.560;2023-01-09T14:03:39;98842.19;;;5.89;100.00
10720;BME280;5411;58.386;15.560;2023-01-09T14:06:27;98841.97;;;5.90;100.00
10720;BME280;5411;58.386;15.560;2023-01-09T14:09:15;98840.13;;;5.91;100.00
10720;BME280;5411;58.386;15.560;2023-01-09T14:11:47;98839.53;;;5.89;100.00
10720;BME280;5411;58.386;15.560;2023-01-09T14:14:25;98845.00;;;5.87;100.00
10720;BME280;5411;58.386;15.560;2023-01-09T14:16:56;98837.03;;;5.87;100.00
10720;BME280;5411;58.386;15.560;2023-01-09T14:19:42;98836.22;;;5.87;100.00
10720;BME280;5411;58.386;15.560;2023-01-09T14:22:25;98833.81;;;5.85;100.00
10720;BME280;5411;58.386;15.560;2023-01-09T14:25:04;98849.34;;;5.82;100.00
10720;BME280;5411;58.386;15.560;2023-01-09T14:28:16;98847.69;;;5.81;100.00
10720;BME280;5411;58.386;15.560;2023-01-09T14:31:29;98844.25;;;5.73;100.00
10720;BME280;5411;58.386;15.560;2023-01-09T14:34:24;98850.34;;;5.74;100.00
10720;BME280;5411;58.386;15.560;2023-01-09T14:36:59;98841.22;;;5.70;100.00
10720;BME280;5411;58.386;15.560;2023-01-09T14:39:35;98851.00;;;5.69;100.00
10720;BME280;5411;58.386;15.560;2023-01-09T14:42:04;98853.81;;;5.74;100.00
10720;BME280;5411;58.386;15.560;2023-01-09T14:44:45;98849.97;;;5.70;100.00